KMLU

Monroe Regional Airport

Monroe, Louisiana, USA
METAR KMLU 170253Z 02011KT 10SM BKN008 OVC041 12/11 A3022 RMK AO2 RAE07 SLP232 P0000 60003 T01170106 50016
Observed Flight Rules
Oct-17 @ 02:53 UTC (43 minutes ago) Instrument Flight Rules
Wind Visibility Clouds
20° at 11 knots 10 miles
  • Broken at 800' AGL
  • Overcast at 4,100' AGL
Temperatures Readings Precipitation
Current 12°C / 54°F
Dewpoint 11°C / 52°F
Humidity 94%
Altimeter 30.22" Hg
Pressure 1023.2 hPa
Elevation 29
Current Rain 0.005
METAR KMLU 170253Z 02011KT 10SM BKN008 OVC041 12/11 A3022 RMK AO2 RAE07 SLP232 P0000 60003 T01170106 50016
Observed Flight Rules
Oct-17 @ 02:53 UTC
(43 minutes ago)
IFR
Wind Visibility
20° at 11 knots 10 miles
Clouds
  • Broken at 800' AGL
  • Overcast at 4,100' AGL
Temperature Dewpoint
12°C / 54°F 11°C / 52°F
Humidity Altimeter Pressure
94% 30.22" Hg 1023.2 hPa
Current Rain
0.005